Terminal Aerodrome Forecast
Issued by NWS

Home | Current Version | Previous Version | Text Only | Print | Product List | Glossary Off
Versions: 1 2 3 4 5 6 7 8 9 10 11 12 13 14 15 16 17 18 19 20 21 22 23 24 25

000
FTUS43 KLOT 261125
TAFDPA
TAF
KDPA 261125Z 2612/2712 18007KT P6SM BKN250
     FM261400 20009KT P6SM SCT030 SCT100 BKN250
     FM270100 18006KT P6SM VCSH SCT050 OVC090
     FM270200 14003KT 6SM -SHRA OVC050 PROB30 2702/2705 4SM -TSRA
      OVC040CB
     FM270600 VRB03KT 6SM BR VCSH SCT025 BKN040=

USA.gov is the U.S. government's official web portal to all federal, state and local government web resources and services.